Long Point, Illinois
Current Conditions -  °F | °C
As of 11:35 PM on Thursday 27 Nov 2014 (Local Time) from KPNT Reporting Station
Scattered Clouds Scattered Clouds  
Wind Chill: -10°   Ceiling: Unl
Heat Index: -10°   Visibility: 10mi
Dew Point: -12°   Wind: 0mph
Humidity: 88%   Direction: NA
Pressure: 30.39"   Gusts: NA
Location:  41°N, 88.89°W
Report Text: KPNT 280535Z AUTO 00000KT 10SM SCT120 M10/M12 A3039 RMK AO2 T11041121
Loading
Personal Weather Stations






























Interactive Weather Map New forecast layout! Learn more

10-Day Weather Forecast

Advertisements
Track Severe Weather on mobile